createdAt,value
2019-02-19T00:00:03.173Z,8.55
2019-02-19T00:01:03.203Z,8.56
2019-02-19T00:02:03.142Z,8.52
2019-02-19T00:03:03.109Z,8.52
2019-02-19T00:04:03.116Z,8.55
2019-02-19T00:05:03.133Z,8.51
2019-02-19T00:06:03.099Z,8.52
2019-02-19T00:07:03.074Z,8.51
2019-02-19T00:08:03.106Z,8.53
2019-02-19T00:09:03.059Z,8.53
2019-02-19T00:10:03.012Z,8.52
2019-02-19T00:11:03.084Z,8.49
2019-02-19T00:12:03.004Z,8.58
2019-02-19T00:13:03.023Z,8.60
2019-02-19T00:14:02.987Z,8.58
2019-02-19T00:15:08.204Z,8.64
2019-02-19T00:16:04.090Z,8.66
2019-02-19T00:17:02.973Z,8.67
2019-02-19T00:18:02.961Z,8.64
2019-02-19T00:19:02.958Z,8.63
2019-02-19T00:20:03.032Z,8.63
2019-02-19T00:21:02.945Z,8.69
2019-02-19T00:22:02.910Z,8.66
2019-02-19T00:23:02.920Z,8.64
2019-02-19T00:24:02.883Z,8.67
2019-02-19T00:25:02.873Z,8.71
2019-02-19T00:26:02.975Z,8.69
2019-02-19T00:27:02.965Z,8.73
2019-02-19T00:28:02.817Z,8.69
2019-02-19T00:29:02.839Z,8.74
2019-02-19T00:30:02.808Z,8.76
2019-02-19T00:31:02.791Z,8.73
2019-02-19T00:32:02.825Z,8.69
2019-02-19T00:33:02.819Z,8.67
2019-02-19T00:34:02.774Z,8.67
2019-02-19T00:35:03.060Z,8.70
2019-02-19T00:36:02.764Z,8.69
2019-02-19T00:37:02.730Z,8.66
2019-02-19T00:38:02.769Z,8.66
2019-02-19T00:39:02.748Z,8.67
2019-02-19T00:40:02.706Z,8.69
2019-02-19T00:41:02.716Z,8.64
2019-02-19T00:42:02.698Z,8.63
2019-02-19T00:43:02.684Z,8.56
2019-02-19T00:44:02.684Z,8.61
2019-02-19T00:45:02.715Z,8.56
2019-02-19T00:46:02.732Z,8.60
2019-02-19T00:47:02.663Z,8.46
2019-02-19T00:48:02.613Z,8.45
2019-02-19T00:49:02.600Z,8.48
2019-02-19T00:50:02.606Z,8.45
2019-02-19T00:51:02.586Z,8.41
2019-02-19T00:52:02.634Z,8.30
2019-02-19T00:53:02.557Z,8.38
2019-02-19T00:54:02.754Z,8.31
2019-02-19T00:55:02.535Z,8.26
2019-02-19T00:56:02.515Z,8.19
2019-02-19T00:57:02.552Z,8.18
2019-02-19T00:58:02.515Z,8.12
2019-02-19T00:59:02.478Z,8.08
2019-02-19T01:00:02.501Z,8.05
2019-02-19T01:01:02.457Z,8.03
2019-02-19T01:02:02.495Z,8.05
2019-02-19T01:03:02.435Z,8.09
2019-02-19T01:04:02.450Z,8.10
2019-02-19T01:05:02.406Z,8.13
2019-02-19T01:06:02.392Z,8.10
2019-02-19T01:07:02.399Z,8.08
2019-02-19T01:08:02.572Z,8.08
2019-02-19T01:09:02.373Z,8.06
2019-02-19T01:10:02.467Z,8.06
2019-02-19T01:11:02.485Z,8.08
2019-02-19T01:12:02.346Z,8.03
2019-02-19T01:13:02.337Z,8.06
2019-02-19T01:14:02.424Z,8.05
2019-02-19T01:15:02.312Z,8.10
2019-02-19T01:16:02.318Z,8.01
2019-02-19T01:17:02.278Z,8.03
2019-02-19T01:18:02.267Z,8.03
2019-02-19T01:19:02.294Z,8.06
2019-02-19T01:20:02.292Z,8.01
2019-02-19T01:21:02.249Z,8.06
2019-02-19T01:22:02.223Z,7.94
2019-02-19T01:23:02.257Z,8.00
2019-02-19T01:24:03.180Z,7.93
2019-02-19T01:25:02.181Z,7.93
2019-02-19T01:26:02.225Z,8.03
2019-02-19T01:27:02.341Z,7.98
2019-02-19T01:28:02.177Z,7.91
2019-02-19T01:29:02.148Z,7.83
2019-02-19T01:30:02.151Z,7.80
2019-02-19T01:31:02.119Z,7.79
2019-02-19T01:32:02.209Z,7.73
2019-02-19T01:33:02.115Z,7.79
2019-02-19T01:34:02.172Z,7.73
2019-02-19T01:35:02.178Z,7.77
2019-02-19T01:36:02.088Z,7.73
2019-02-19T01:37:02.050Z,7.76
2019-02-19T01:38:02.092Z,7.80
2019-02-19T01:39:02.017Z,7.82
2019-02-19T01:40:02.031Z,7.77
2019-02-19T01:41:02.046Z,7.82
2019-02-19T01:42:02.009Z,7.83
2019-02-19T01:43:02.052Z,7.91
2019-02-19T01:44:02.033Z,7.93
2019-02-19T01:45:02.022Z,7.97
2019-02-19T01:46:01.957Z,7.93
2019-02-19T01:47:01.983Z,7.95
2019-02-19T01:48:02.094Z,8.03
2019-02-19T01:49:01.986Z,8.08
2019-02-19T01:50:01.927Z,8.18
2019-02-19T01:51:01.939Z,8.15
2019-02-19T01:52:01.909Z,8.23
2019-02-19T01:53:01.930Z,8.28
2019-02-19T01:54:01.979Z,8.28
2019-02-19T01:55:01.861Z,8.41
2019-02-19T01:56:01.867Z,8.37
2019-02-19T01:57:01.837Z,8.44
2019-02-19T01:58:01.920Z,8.51
2019-02-19T01:59:01.826Z,8.53
2019-02-19T02:00:01.852Z,8.56
2019-02-19T02:01:01.779Z,8.60
2019-02-19T02:02:01.775Z,8.51
2019-02-19T02:03:01.804Z,8.58
2019-02-19T02:04:01.786Z,8.49
2019-02-19T02:05:01.739Z,8.60
2019-02-19T02:06:01.779Z,8.66
2019-02-19T02:07:04.423Z,8.69
2019-02-19T02:08:01.715Z,8.66
2019-02-19T02:09:01.718Z,8.67
2019-02-19T02:10:02.690Z,8.67
2019-02-19T02:11:01.711Z,8.63
2019-02-19T02:12:01.652Z,8.73
2019-02-19T02:13:01.652Z,8.67
2019-02-19T02:14:01.651Z,8.76
2019-02-19T02:15:01.633Z,8.74
2019-02-19T02:16:01.629Z,8.84
2019-02-19T02:17:01.663Z,8.85
2019-02-19T02:18:01.780Z,8.79
2019-02-19T02:19:01.588Z,8.85
2019-02-19T02:20:01.609Z,8.84
2019-02-19T02:21:01.615Z,8.82
2019-02-19T02:22:01.593Z,8.82
2019-02-19T02:23:01.579Z,8.87
2019-02-19T02:24:01.529Z,8.71
2019-02-19T02:25:02.200Z,8.89
2019-02-19T02:26:01.556Z,8.84
2019-02-19T02:27:01.574Z,8.82
2019-02-19T02:28:01.491Z,8.81
2019-02-19T02:29:01.525Z,8.82
2019-02-19T02:30:01.507Z,8.82
2019-02-19T02:31:01.488Z,8.88
2019-02-19T02:32:01.434Z,8.84
2019-02-19T02:33:01.433Z,8.89
2019-02-19T02:34:01.415Z,8.81
2019-02-19T02:35:01.425Z,8.82
2019-02-19T02:36:01.426Z,8.84
2019-02-19T02:37:01.527Z,8.82
2019-02-19T02:38:01.411Z,8.79
2019-02-19T02:39:01.422Z,8.70
2019-02-19T02:40:01.400Z,8.70
2019-02-19T02:41:01.344Z,8.79
2019-02-19T02:42:01.369Z,8.67
2019-02-19T02:43:01.374Z,8.79
2019-02-19T02:44:01.299Z,8.63
2019-02-19T02:45:01.296Z,8.71
2019-02-19T02:46:01.303Z,8.74
2019-02-19T02:47:01.300Z,8.74
2019-02-19T02:48:01.300Z,8.64
2019-02-19T02:49:01.243Z,8.60
2019-02-19T02:50:01.246Z,8.61
2019-02-19T02:51:01.234Z,8.63
2019-02-19T02:52:01.238Z,8.63
2019-02-19T02:53:01.329Z,8.58
2019-02-19T02:54:01.238Z,8.63
2019-02-19T02:55:01.326Z,8.60
2019-02-19T02:56:01.209Z,8.52
2019-02-19T02:57:01.160Z,8.58
2019-02-19T02:58:01.138Z,8.56
2019-02-19T02:59:01.696Z,8.53
2019-02-19T03:00:01.145Z,8.58
2019-02-19T03:01:01.328Z,8.53
2019-02-19T03:02:01.113Z,8.53
2019-02-19T03:03:01.093Z,8.51
2019-02-19T03:04:01.103Z,8.48
2019-02-19T03:05:01.076Z,8.49
2019-02-19T03:06:01.179Z,8.46
2019-02-19T03:07:01.048Z,8.51
2019-02-19T03:08:01.067Z,8.56
2019-02-19T03:09:01.026Z,8.61
2019-02-19T03:10:01.058Z,8.64
2019-02-19T03:11:01.081Z,8.61
2019-02-19T03:12:00.988Z,8.63
2019-02-19T03:13:01.010Z,8.58
2019-02-19T03:14:00.968Z,8.58
2019-02-19T03:15:01.033Z,8.49
2019-02-19T03:16:02.720Z,8.51
2019-02-19T03:17:00.941Z,8.48
2019-02-19T03:18:01.078Z,8.41
2019-02-19T03:19:00.959Z,8.45
2019-02-19T03:20:01.297Z,8.45
2019-02-19T03:21:00.903Z,8.38
2019-02-19T03:22:00.898Z,8.38
2019-02-19T03:23:01.024Z,8.37
2019-02-19T03:24:00.865Z,8.31
2019-02-19T03:25:00.851Z,8.24
2019-02-19T03:26:00.876Z,8.30
2019-02-19T03:27:00.849Z,8.30
2019-02-19T03:28:00.884Z,8.30
2019-02-19T03:29:00.801Z,8.24
2019-02-19T03:30:00.816Z,8.23
2019-02-19T03:31:00.819Z,8.20
2019-02-19T03:32:00.774Z,8.20
2019-02-19T03:33:00.770Z,8.16
2019-02-19T03:34:00.825Z,8.12
2019-02-19T03:35:00.789Z,8.09
2019-02-19T03:36:00.730Z,8.13
2019-02-19T03:37:00.712Z,8.10
2019-02-19T03:38:00.717Z,8.10
2019-02-19T03:39:00.689Z,8.06
2019-02-19T03:40:00.770Z,8.01
2019-02-19T03:41:00.684Z,8.08
2019-02-19T03:42:00.653Z,8.06
2019-02-19T03:43:00.697Z,7.97
2019-02-19T03:44:00.635Z,7.94
2019-02-19T03:45:00.705Z,8.01
2019-02-19T03:46:00.620Z,7.98
2019-02-19T03:47:00.763Z,7.94
2019-02-19T03:48:00.618Z,7.94
2019-02-19T03:49:00.575Z,7.80
2019-02-19T03:50:01.205Z,7.79
2019-02-19T03:51:00.608Z,7.80
2019-02-19T03:52:00.555Z,7.82
2019-02-19T03:53:00.666Z,7.77
2019-02-19T03:54:00.546Z,7.79
2019-02-19T03:55:00.516Z,7.80
2019-02-19T03:56:00.581Z,7.82
2019-02-19T03:57:00.521Z,7.80
2019-02-19T03:58:00.473Z,7.80
2019-02-19T03:59:00.520Z,7.77
2019-02-19T04:00:00.476Z,7.76
2019-02-19T04:01:00.468Z,7.72
2019-02-19T04:02:00.444Z,7.63
2019-02-19T04:03:00.478Z,7.69
2019-02-19T04:04:00.425Z,7.75
2019-02-19T04:05:00.405Z,7.70
2019-02-19T04:06:00.417Z,7.69
2019-02-19T04:07:00.409Z,7.61
2019-02-19T04:08:00.378Z,7.60
2019-02-19T04:09:00.474Z,7.69
2019-02-19T04:10:00.363Z,7.73
2019-02-19T04:11:01.211Z,7.75
2019-02-19T04:12:00.371Z,7.76
2019-02-19T04:13:00.366Z,7.83
2019-02-19T04:14:00.308Z,7.82
2019-02-19T04:15:00.362Z,7.85
2019-02-19T04:16:00.322Z,7.76
2019-02-19T04:17:00.449Z,7.80
2019-02-19T04:18:00.271Z,7.75
2019-02-19T04:19:00.298Z,7.77
2019-02-19T04:20:00.439Z,7.82
2019-02-19T04:21:00.287Z,7.76
2019-02-19T04:22:00.210Z,7.76
2019-02-19T04:23:00.265Z,7.80
2019-02-19T04:24:00.265Z,7.83
2019-02-19T04:25:00.211Z,7.87
2019-02-19T04:26:00.185Z,7.76
2019-02-19T04:27:00.161Z,7.94
2019-02-19T04:28:00.189Z,7.91
2019-02-19T04:29:00.194Z,7.98
2019-02-19T04:30:00.336Z,8.03
2019-02-19T04:31:00.116Z,8.00
2019-02-19T04:32:00.111Z,8.01
2019-02-19T04:33:00.097Z,7.94
2019-02-19T04:34:00.112Z,7.94
2019-02-19T04:35:00.174Z,7.97
2019-02-19T04:36:00.118Z,7.80
2019-02-19T04:37:00.100Z,7.79
2019-02-19T04:38:00.093Z,7.77
2019-02-19T04:39:00.081Z,7.79
2019-02-19T04:40:00.029Z,7.76
2019-02-19T04:41:00.099Z,7.76
2019-02-19T04:42:00.013Z,7.77
2019-02-19T04:42:59.999Z,7.79
2019-02-19T04:43:59.996Z,7.76
2019-02-19T04:45:00.057Z,7.79
2019-02-19T04:45:59.965Z,7.73
2019-02-19T04:46:59.944Z,7.73
2019-02-19T04:48:00.036Z,7.85
2019-02-19T04:48:59.922Z,7.87
2019-02-19T04:49:59.902Z,7.79
2019-02-19T04:50:59.959Z,7.85
2019-02-19T04:51:59.907Z,7.80
2019-02-19T04:52:59.871Z,7.87
2019-02-19T04:53:59.871Z,7.82
2019-02-19T04:54:59.844Z,7.83
2019-02-19T04:56:07.455Z,7.87
2019-02-19T04:56:59.813Z,7.79
2019-02-19T04:57:59.826Z,7.80
2019-02-19T04:58:59.796Z,7.80
2019-02-19T04:59:59.800Z,7.72
2019-02-19T05:00:59.775Z,7.72
2019-02-19T05:01:59.777Z,7.72
2019-02-19T05:02:59.860Z,7.77
2019-02-19T05:03:59.755Z,7.67
2019-02-19T05:04:59.736Z,7.73
2019-02-19T05:05:59.820Z,7.77
2019-02-19T05:06:59.749Z,7.67
2019-02-19T05:07:59.809Z,7.60
2019-02-19T05:08:59.701Z,7.77
2019-02-19T05:09:59.687Z,7.80
2019-02-19T05:10:59.670Z,7.79
2019-02-19T05:11:59.753Z,7.75
2019-02-19T05:12:59.674Z,7.77
2019-02-19T05:13:59.672Z,7.80
2019-02-19T05:14:59.652Z,7.82
2019-02-19T05:15:59.656Z,7.77
2019-02-19T05:16:59.631Z,7.83
2019-02-19T05:17:59.666Z,7.77
2019-02-19T05:18:59.615Z,7.77
2019-02-19T05:19:59.589Z,7.83
2019-02-19T05:20:59.686Z,7.77
2019-02-19T05:21:59.556Z,7.75
2019-02-19T05:22:59.597Z,7.75
2019-02-19T05:23:59.624Z,7.75
2019-02-19T05:24:59.560Z,7.79
2019-02-19T05:25:59.574Z,7.75
2019-02-19T05:26:59.503Z,7.76
2019-02-19T05:27:59.469Z,7.79
2019-02-19T05:28:59.513Z,7.73
2019-02-19T05:29:59.449Z,7.77
2019-02-19T05:30:59.458Z,7.77
2019-02-19T05:31:59.496Z,7.82
2019-02-19T05:32:59.480Z,7.63
2019-02-19T05:33:59.410Z,7.72
2019-02-19T05:34:59.461Z,7.72
2019-02-19T05:35:59.610Z,7.69
2019-02-19T05:36:59.373Z,7.67
2019-02-19T05:37:59.379Z,7.66
2019-02-19T05:38:59.348Z,7.66
2019-02-19T05:39:59.340Z,7.69
2019-02-19T05:40:59.323Z,7.66
2019-02-19T05:41:59.359Z,7.63
2019-02-19T05:42:59.385Z,7.77
2019-02-19T05:43:59.299Z,7.75
2019-02-19T05:44:59.289Z,7.72
2019-02-19T05:45:59.278Z,7.70
2019-02-19T05:46:59.263Z,7.75
2019-02-19T05:47:59.254Z,7.75
2019-02-19T05:48:59.265Z,7.76
2019-02-19T05:49:59.237Z,7.75
2019-02-19T05:50:59.215Z,7.72
2019-02-19T05:51:59.207Z,7.77
2019-02-19T05:52:59.215Z,7.76
2019-02-19T05:53:59.185Z,7.80
2019-02-19T05:54:59.165Z,7.79
2019-02-19T05:55:59.161Z,7.87
2019-02-19T05:56:59.150Z,7.93
2019-02-19T05:57:59.193Z,7.90
2019-02-19T05:58:59.128Z,8.00
2019-02-19T05:59:59.116Z,7.94
2019-02-19T06:00:59.119Z,7.98
2019-02-19T06:01:59.096Z,7.93
2019-02-19T06:02:59.159Z,7.98
2019-02-19T06:03:59.096Z,7.88
2019-02-19T06:04:59.101Z,7.95
2019-02-19T06:05:59.065Z,7.82
2019-02-19T06:06:59.036Z,7.83
2019-02-19T06:07:59.057Z,7.83
2019-02-19T06:08:59.030Z,7.67
2019-02-19T06:09:59.010Z,7.63
2019-02-19T06:10:59.043Z,7.66
2019-02-19T06:11:59.010Z,7.60
2019-02-19T06:12:58.978Z,7.56
2019-02-19T06:13:58.965Z,7.66
2019-02-19T06:14:58.950Z,7.66
2019-02-19T06:15:58.937Z,7.61
2019-02-19T06:16:59.010Z,7.51
2019-02-19T06:17:58.912Z,7.58
2019-02-19T06:18:59.747Z,7.51
2019-02-19T06:19:58.898Z,7.54
2019-02-19T06:20:58.896Z,7.66
2019-02-19T06:21:59.013Z,7.67
2019-02-19T06:22:58.878Z,7.61
2019-02-19T06:23:58.855Z,7.66
2019-02-19T06:24:58.842Z,7.66
2019-02-19T06:25:58.834Z,7.72
2019-02-19T06:26:58.890Z,7.66
2019-02-19T06:27:58.808Z,7.66
2019-02-19T06:28:58.804Z,7.69
2019-02-19T06:29:58.786Z,7.57
2019-02-19T06:30:58.768Z,7.54
2019-02-19T06:31:58.767Z,7.51
2019-02-19T06:32:58.777Z,7.54
2019-02-19T06:33:58.734Z,7.51
2019-02-19T06:34:58.724Z,7.57
2019-02-19T06:35:58.715Z,7.40
2019-02-19T06:36:58.708Z,7.53
2019-02-19T06:37:58.694Z,7.56
2019-02-19T06:38:58.697Z,7.45
2019-02-19T06:39:58.676Z,7.53
2019-02-19T06:40:58.666Z,7.39
2019-02-19T06:41:58.639Z,7.42
2019-02-19T06:42:58.652Z,7.43
2019-02-19T06:43:58.625Z,7.40
2019-02-19T06:44:58.608Z,7.45
2019-02-19T06:45:58.595Z,7.32
2019-02-19T06:47:06.543Z,7.35
2019-02-19T06:47:59.600Z,7.43
2019-02-19T06:48:58.564Z,7.42
2019-02-19T06:49:58.560Z,7.42
2019-02-19T06:50:58.547Z,7.42
2019-02-19T06:51:59.255Z,7.43
2019-02-19T06:52:58.527Z,7.47
2019-02-19T06:53:58.545Z,7.47
2019-02-19T06:54:58.535Z,7.48
2019-02-19T06:55:58.482Z,7.45
2019-02-19T06:56:58.477Z,7.43
2019-02-19T06:57:58.466Z,7.42
2019-02-19T06:58:58.450Z,7.32
2019-02-19T06:59:58.462Z,7.42
2019-02-19T07:00:58.422Z,7.40
2019-02-19T07:01:58.452Z,7.39
2019-02-19T07:02:58.403Z,7.38
2019-02-19T07:03:58.390Z,7.42
2019-02-19T07:04:58.415Z,7.45
2019-02-19T07:05:58.368Z,7.45
2019-02-19T07:06:58.370Z,7.35
2019-02-19T07:07:58.346Z,7.35
2019-02-19T07:08:58.336Z,7.45
2019-02-19T07:09:58.330Z,7.36
2019-02-19T07:10:58.380Z,7.47
2019-02-19T07:11:58.908Z,7.47
2019-02-19T07:12:58.299Z,7.38
2019-02-19T07:13:58.343Z,7.42
2019-02-19T07:14:58.271Z,7.47
2019-02-19T07:15:58.297Z,7.43
2019-02-19T07:16:58.298Z,7.43
2019-02-19T07:17:58.250Z,7.38
2019-02-19T07:18:58.355Z,7.32
2019-02-19T07:19:58.214Z,7.45
2019-02-19T07:20:58.202Z,7.45
2019-02-19T07:21:58.267Z,7.47
2019-02-19T07:22:58.204Z,7.50
2019-02-19T07:24:04.430Z,7.42
2019-02-19T07:24:59.152Z,7.40
2019-02-19T07:25:58.137Z,7.42
2019-02-19T07:26:58.133Z,7.43
2019-02-19T07:27:58.199Z,7.50
2019-02-19T07:28:58.126Z,7.35
2019-02-19T07:29:58.099Z,7.47
2019-02-19T07:30:58.092Z,7.43
2019-02-19T07:31:58.075Z,7.42
2019-02-19T07:32:58.085Z,7.42
2019-02-19T07:33:58.058Z,7.47
2019-02-19T07:34:58.049Z,7.47
2019-02-19T07:35:58.039Z,7.42
2019-02-19T07:36:58.020Z,7.42
2019-02-19T07:37:58.033Z,7.50
2019-02-19T07:38:58.024Z,7.42
2019-02-19T07:39:57.985Z,7.35
2019-02-19T07:40:57.976Z,7.40
2019-02-19T07:41:57.967Z,7.39
2019-02-19T07:42:57.979Z,7.40
2019-02-19T07:43:57.943Z,7.40
2019-02-19T07:44:57.926Z,7.42
2019-02-19T07:45:57.956Z,7.43
2019-02-19T07:46:58.040Z,7.31
2019-02-19T07:47:57.894Z,7.42
2019-02-19T07:48:57.892Z,7.45
2019-02-19T07:49:57.871Z,7.35
2019-02-19T07:50:57.862Z,7.45
2019-02-19T07:51:57.886Z,7.35
2019-02-19T07:52:57.833Z,7.32
2019-02-19T07:53:57.851Z,7.43
2019-02-19T07:54:58.785Z,7.45
2019-02-19T07:55:57.825Z,7.43
2019-02-19T07:56:57.794Z,7.42
2019-02-19T07:57:57.793Z,7.48
2019-02-19T07:58:57.772Z,7.45
2019-02-19T07:59:57.758Z,7.45
2019-02-19T08:00:57.784Z,7.35
2019-02-19T08:01:59.171Z,7.29
2019-02-19T08:02:57.718Z,7.29
2019-02-19T08:03:57.718Z,7.38
2019-02-19T08:04:57.695Z,7.35
2019-02-19T08:05:57.687Z,7.33
2019-02-19T08:06:57.696Z,7.32
2019-02-19T08:07:57.676Z,7.35
2019-02-19T08:08:57.686Z,7.33
2019-02-19T08:09:57.644Z,7.32
2019-02-19T08:10:57.634Z,7.31
2019-02-19T08:11:57.687Z,7.31
2019-02-19T08:12:57.643Z,7.32
2019-02-19T08:13:57.788Z,7.18
2019-02-19T08:14:57.588Z,7.25
2019-02-19T08:15:57.575Z,7.21
2019-02-19T08:16:57.681Z,7.25
2019-02-19T08:17:57.557Z,7.24
2019-02-19T08:18:57.585Z,7.33
2019-02-19T08:19:57.578Z,7.25
2019-02-19T08:20:57.517Z,7.38
2019-02-19T08:21:57.502Z,7.35
2019-02-19T08:22:57.503Z,7.32
2019-02-19T08:23:57.507Z,7.43
2019-02-19T08:24:57.473Z,7.40
2019-02-19T08:25:57.467Z,7.48
2019-02-19T08:26:57.453Z,7.58
2019-02-19T08:27:57.487Z,7.51
2019-02-19T08:29:06.935Z,7.63
2019-02-19T08:29:58.619Z,7.53
2019-02-19T08:30:57.415Z,7.58
2019-02-19T08:31:57.424Z,7.67
2019-02-19T08:32:57.383Z,7.72
2019-02-19T08:33:57.377Z,7.63
2019-02-19T08:34:57.383Z,7.82
2019-02-19T08:35:57.351Z,7.76
2019-02-19T08:36:57.378Z,7.77
2019-02-19T08:37:58.274Z,7.83
2019-02-19T08:38:57.323Z,7.80
2019-02-19T08:39:57.303Z,7.87
2019-02-19T08:40:57.387Z,7.93
2019-02-19T08:41:57.281Z,7.94
2019-02-19T08:42:57.287Z,7.95
2019-02-19T08:43:57.262Z,7.98
2019-02-19T08:44:57.264Z,8.06
2019-02-19T08:45:57.294Z,8.10
2019-02-19T08:46:57.284Z,8.06
2019-02-19T08:47:57.224Z,8.12
2019-02-19T08:48:57.201Z,8.18
2019-02-19T08:49:58.094Z,8.20
2019-02-19T08:50:57.180Z,8.26
2019-02-19T08:51:57.190Z,8.30
2019-02-19T08:52:57.177Z,8.26
2019-02-19T08:53:57.252Z,8.37
2019-02-19T08:54:57.140Z,8.33
2019-02-19T08:55:57.134Z,8.31
2019-02-19T08:56:57.373Z,8.42
2019-02-19T08:57:57.143Z,8.33
2019-02-19T08:58:57.097Z,8.30
2019-02-19T08:59:57.140Z,8.30
2019-02-19T09:00:57.070Z,8.23
2019-02-19T09:01:57.083Z,8.30
2019-02-19T09:02:57.077Z,8.27
2019-02-19T09:03:57.041Z,8.33
2019-02-19T09:04:57.035Z,8.30
2019-02-19T09:05:57.024Z,8.23
2019-02-19T09:06:57.012Z,8.30
2019-02-19T09:07:57.032Z,8.36
2019-02-19T09:08:56.981Z,8.46
2019-02-19T09:09:56.982Z,8.44
2019-02-19T09:10:56.961Z,8.37
2019-02-19T09:11:56.950Z,8.46
2019-02-19T09:12:57.089Z,8.53
2019-02-19T09:13:56.944Z,8.55
2019-02-19T09:14:56.949Z,8.49
2019-02-19T09:15:56.921Z,8.64
2019-02-19T09:16:56.890Z,8.64
2019-02-19T09:17:56.930Z,8.74
2019-02-19T09:18:56.904Z,8.69
2019-02-19T09:19:56.875Z,8.69
2019-02-19T09:20:56.879Z,8.67
2019-02-19T09:21:56.841Z,8.71
2019-02-19T09:22:56.820Z,8.69
2019-02-19T09:23:58.463Z,8.74
2019-02-19T09:24:56.807Z,8.74
2019-02-19T09:25:56.800Z,8.78
2019-02-19T09:26:56.802Z,8.73
2019-02-19T09:27:56.769Z,8.70
2019-02-19T09:28:56.757Z,8.79
2019-02-19T09:29:56.778Z,8.79
2019-02-19T09:30:56.743Z,8.91
2019-02-19T09:31:56.729Z,8.74
2019-02-19T09:32:56.731Z,8.88
2019-02-19T09:33:56.710Z,8.82
2019-02-19T09:34:56.694Z,8.85
2019-02-19T09:35:56.722Z,8.85
2019-02-19T09:36:56.671Z,8.81
2019-02-19T09:37:56.698Z,8.95
2019-02-19T09:38:56.649Z,9.04
2019-02-19T09:39:56.896Z,9.00
2019-02-19T09:40:56.700Z,9.08
2019-02-19T09:41:56.618Z,9.10
2019-02-19T09:42:56.681Z,9.18
2019-02-19T09:43:56.595Z,9.22
2019-02-19T09:44:56.585Z,9.19
2019-02-19T09:45:56.577Z,9.14
2019-02-19T09:46:56.578Z,9.16
2019-02-19T09:48:01.169Z,9.08
2019-02-19T09:48:57.543Z,9.14
2019-02-19T09:49:56.523Z,9.14
2019-02-19T09:50:56.533Z,9.18
2019-02-19T09:51:56.515Z,9.25
2019-02-19T09:52:59.970Z,9.28
2019-02-19T09:53:56.488Z,9.31
2019-02-19T09:54:56.487Z,9.32
2019-02-19T09:55:56.458Z,9.43
2019-02-19T09:56:56.456Z,9.55
2019-02-19T09:57:56.460Z,9.55
2019-02-19T09:58:56.430Z,9.62
2019-02-19T09:59:56.483Z,9.62
2019-02-19T10:00:56.400Z,9.64
2019-02-19T10:01:56.395Z,9.61
2019-02-19T10:02:56.380Z,9.62
2019-02-19T10:03:57.286Z,9.48
2019-02-19T10:04:56.362Z,9.56
2019-02-19T10:05:56.358Z,9.64
2019-02-19T10:06:56.357Z,9.65
2019-02-19T10:07:56.328Z,9.66
2019-02-19T10:08:56.317Z,9.62
2019-02-19T10:09:56.390Z,9.73
2019-02-19T10:10:56.294Z,9.72
2019-02-19T10:11:56.279Z,9.74
2019-02-19T10:12:56.273Z,9.74
2019-02-19T10:13:56.279Z,9.51
2019-02-19T10:14:56.274Z,9.50
2019-02-19T10:15:56.261Z,9.55
2019-02-19T10:16:56.224Z,9.48
2019-02-19T10:17:56.214Z,9.56
2019-02-19T10:18:56.232Z,9.61
2019-02-19T10:19:56.190Z,9.66
2019-02-19T10:20:56.226Z,9.61
2019-02-19T10:21:56.180Z,9.62
2019-02-19T10:22:56.153Z,9.68
2019-02-19T10:23:56.168Z,9.61
2019-02-19T10:24:56.140Z,9.65
2019-02-19T10:25:56.130Z,9.74
2019-02-19T10:26:56.110Z,9.65
2019-02-19T10:27:56.133Z,9.74
2019-02-19T10:28:56.157Z,9.72
2019-02-19T10:29:56.083Z,9.64
2019-02-19T10:30:56.065Z,9.65
2019-02-19T10:31:56.050Z,9.64
2019-02-19T10:32:56.079Z,9.65
2019-02-19T10:33:56.040Z,9.64
2019-02-19T10:34:56.023Z,9.62
2019-02-19T10:35:56.015Z,9.58
2019-02-19T10:36:56.005Z,9.58
2019-02-19T10:37:55.989Z,9.59
2019-02-19T10:38:56.002Z,9.62
2019-02-19T10:39:55.986Z,9.64
2019-02-19T10:40:55.949Z,9.72
2019-02-19T10:41:55.956Z,9.74
2019-02-19T10:42:55.932Z,9.66
2019-02-19T10:43:55.951Z,9.86
2019-02-19T10:44:55.907Z,9.89
2019-02-19T10:45:55.895Z,9.89
2019-02-19T10:46:55.890Z,10.02
2019-02-19T10:47:55.876Z,9.94
2019-02-19T10:48:55.863Z,9.94
2019-02-19T10:49:56.023Z,9.87
2019-02-19T10:50:55.871Z,9.92
2019-02-19T10:51:55.824Z,9.94
2019-02-19T10:52:55.850Z,9.87
2019-02-19T10:53:55.811Z,9.92
2019-02-19T10:54:55.798Z,9.91
2019-02-19T10:55:55.811Z,9.91
2019-02-19T10:56:55.805Z,9.89
2019-02-19T10:57:55.759Z,9.87
2019-02-19T10:58:55.750Z,9.97
2019-02-19T10:59:55.769Z,9.99
2019-02-19T11:00:55.729Z,10.12
2019-02-19T11:01:55.724Z,10.02
2019-02-19T11:02:55.732Z,10.05
2019-02-19T11:03:55.703Z,10.04
2019-02-19T11:04:55.687Z,10.01
2019-02-19T11:05:55.683Z,9.91
2019-02-19T11:06:55.685Z,9.92
2019-02-19T11:07:55.691Z,9.94
2019-02-19T11:08:55.798Z,10.01
2019-02-19T11:09:55.648Z,10.01
2019-02-19T11:10:55.629Z,9.98
2019-02-19T11:11:55.632Z,9.98
2019-02-19T11:12:55.637Z,10.04
2019-02-19T11:13:55.622Z,9.98
2019-02-19T11:14:55.577Z,10.01
2019-02-19T11:15:55.564Z,9.98
2019-02-19T11:16:55.555Z,9.87
2019-02-19T11:17:55.600Z,9.87
2019-02-19T11:18:55.531Z,9.87
2019-02-19T11:19:55.525Z,10.01
2019-02-19T11:20:55.525Z,9.99
2019-02-19T11:21:55.517Z,10.01
2019-02-19T11:22:55.490Z,10.01
2019-02-19T11:23:55.532Z,10.15
2019-02-19T11:24:55.461Z,10.07
2019-02-19T11:25:55.457Z,10.17
2019-02-19T11:26:55.437Z,10.26
2019-02-19T11:27:55.426Z,10.25
2019-02-19T11:28:55.415Z,10.22
2019-02-19T11:29:55.430Z,10.23
2019-02-19T11:30:55.402Z,10.20
2019-02-19T11:31:55.396Z,10.30
2019-02-19T11:32:55.369Z,10.25
2019-02-19T11:33:55.360Z,10.23
2019-02-19T11:34:55.379Z,10.23
2019-02-19T11:35:55.514Z,10.23
2019-02-19T11:36:55.331Z,10.25
2019-02-19T11:37:55.360Z,10.22
2019-02-19T11:38:55.432Z,10.26
2019-02-19T11:39:55.297Z,10.25
2019-02-19T11:40:55.301Z,10.33
2019-02-19T11:41:55.326Z,10.40
2019-02-19T11:42:55.305Z,10.20
2019-02-19T11:43:55.263Z,10.34
2019-02-19T11:44:55.239Z,10.23
2019-02-19T11:45:55.221Z,10.22
2019-02-19T11:46:55.226Z,10.15
2019-02-19T11:47:55.298Z,10.16
2019-02-19T11:48:56.231Z,10.13
2019-02-19T11:49:55.211Z,10.10
2019-02-19T11:50:55.167Z,10.19
2019-02-19T11:51:55.167Z,10.15
2019-02-19T11:52:55.147Z,10.13
2019-02-19T11:53:55.171Z,10.17
2019-02-19T11:54:55.197Z,10.15
2019-02-19T11:55:55.144Z,10.15
2019-02-19T11:56:55.101Z,10.09
2019-02-19T11:57:55.113Z,10.17
2019-02-19T11:58:55.125Z,10.16
2019-02-19T11:59:55.250Z,10.15
2019-02-19T12:00:55.086Z,10.13
2019-02-19T12:01:55.067Z,10.22
2019-02-19T12:02:55.089Z,10.26
2019-02-19T12:03:55.058Z,10.26
2019-02-19T12:04:55.043Z,10.22
2019-02-19T12:05:55.014Z,10.35
2019-02-19T12:06:55.007Z,10.35
2019-02-19T12:07:55.813Z,10.23
2019-02-19T12:08:54.994Z,10.26
2019-02-19T12:09:54.978Z,10.31
2019-02-19T12:10:54.979Z,10.23
2019-02-19T12:11:54.941Z,10.26
2019-02-19T12:12:54.949Z,10.26
2019-02-19T12:13:54.920Z,10.20
2019-02-19T12:14:54.903Z,10.28
2019-02-19T12:15:54.896Z,10.30
2019-02-19T12:16:54.918Z,10.31
2019-02-19T12:17:54.883Z,10.40
2019-02-19T12:18:55.810Z,10.30
2019-02-19T12:19:54.853Z,10.38
2019-02-19T12:20:54.847Z,10.35
2019-02-19T12:21:54.863Z,10.31
2019-02-19T12:22:54.824Z,10.30
2019-02-19T12:23:54.805Z,10.31
2019-02-19T12:24:54.786Z,10.35
2019-02-19T12:25:54.818Z,10.35
2019-02-19T12:26:54.799Z,10.35
2019-02-19T12:27:54.806Z,10.35
2019-02-19T12:28:54.744Z,10.35
2019-02-19T12:29:54.744Z,10.34
2019-02-19T12:30:54.724Z,10.40
2019-02-19T12:31:54.731Z,10.42
2019-02-19T12:32:55.320Z,10.37
2019-02-19T12:33:54.711Z,10.44
2019-02-19T12:34:54.684Z,10.38
2019-02-19T12:35:54.702Z,10.41
2019-02-19T12:36:54.728Z,10.46
2019-02-19T12:37:54.646Z,10.44
2019-02-19T12:38:54.641Z,10.56
2019-02-19T12:39:54.626Z,10.49
2019-02-19T12:40:54.616Z,10.63
2019-02-19T12:41:54.631Z,10.68
2019-02-19T12:42:54.638Z,10.68
2019-02-19T12:43:54.602Z,10.75
2019-02-19T12:44:54.585Z,10.82
2019-02-19T12:45:54.572Z,10.68
2019-02-19T12:46:54.563Z,10.76
2019-02-19T12:47:54.539Z,10.76
2019-02-19T12:48:55.029Z,10.76
2019-02-19T12:49:54.514Z,10.67
2019-02-19T12:50:54.544Z,10.63
2019-02-19T12:51:55.603Z,10.63
2019-02-19T12:52:54.489Z,10.63
2019-02-19T12:53:54.484Z,10.59
2019-02-19T12:54:54.462Z,10.61
2019-02-19T12:55:54.483Z,10.64
2019-02-19T12:56:54.461Z,10.60
2019-02-19T12:57:54.425Z,10.68
2019-02-19T12:58:54.421Z,10.69
2019-02-19T12:59:56.574Z,11.07
2019-02-19T13:00:54.397Z,11.08
2019-02-19T13:01:54.381Z,11.02
2019-02-19T13:02:54.394Z,11.02
2019-02-19T13:03:54.356Z,11.02
2019-02-19T13:04:54.359Z,10.99
2019-02-19T13:05:54.399Z,11.04
2019-02-19T13:06:54.332Z,11.05
2019-02-19T13:07:54.318Z,11.10
2019-02-19T13:08:54.300Z,11.10
2019-02-19T13:09:54.307Z,11.10
2019-02-19T13:10:54.300Z,11.00
2019-02-19T13:11:54.297Z,10.86
2019-02-19T13:12:54.262Z,10.74
2019-02-19T13:13:54.245Z,10.75